createdAt,value
2014-07-21T00:00:09.898Z,100448
2014-07-21T00:00:28.164Z,100443
2014-07-21T00:00:45.304Z,100457
2014-07-21T00:01:02.304Z,100443
2014-07-21T00:01:20.603Z,100451
2014-07-21T00:01:38.838Z,100443
2014-07-21T00:01:57.103Z,100443
2014-07-21T00:02:14.730Z,100443
2014-07-21T00:02:32.996Z,100446
2014-07-21T00:02:50.636Z,100451
2014-07-21T00:03:08.904Z,100448
2014-07-21T00:03:27.295Z,100443
2014-07-21T00:03:44.935Z,100443
2014-07-21T00:04:03.201Z,100446
2014-07-21T00:04:21.468Z,100448
2014-07-21T00:04:39.718Z,100440
2014-07-21T00:04:57.983Z,100440
2014-07-21T00:05:16.251Z,100443
2014-07-21T00:05:32.641Z,100440
2014-07-21T00:05:50.907Z,100446
2014-07-21T00:06:08.534Z,100443
2014-07-21T00:06:26.940Z,100446
2014-07-21T00:06:45.190Z,100446
2014-07-21T00:07:02.847Z,100446
2014-07-21T00:07:20.599Z,100440
2014-07-21T00:07:37.755Z,100443
2014-07-21T00:07:56.005Z,100448
2014-07-21T00:08:13.632Z,100443
2014-07-21T00:08:31.272Z,100446
2014-07-21T00:08:48.913Z,100448
2014-07-21T00:09:07.182Z,100446
2014-07-21T00:09:25.432Z,100446
2014-07-21T00:09:43.088Z,100451
2014-07-21T00:10:01.338Z,100440
2014-07-21T00:10:19.605Z,100443
2014-07-21T00:10:37.870Z,100446
2014-07-21T00:10:56.136Z,100440
2014-07-21T00:11:13.778Z,100440
2014-07-21T00:11:30.778Z,100437
2014-07-21T00:11:49.044Z,100446
2014-07-21T00:12:06.685Z,100434
2014-07-21T00:12:24.952Z,100451
2014-07-21T00:12:42.593Z,100446
2014-07-21T00:13:00.234Z,100446
2014-07-21T00:13:18.501Z,100448
2014-07-21T00:13:35.501Z,100443
2014-07-21T00:13:53.767Z,100443
2014-07-21T00:14:11.394Z,100440
2014-07-21T00:14:29.034Z,100443
2014-07-21T00:14:46.659Z,100440
2014-07-21T00:15:04.425Z,100448
2014-07-21T00:15:22.068Z,100437
2014-07-21T00:15:40.458Z,100451
2014-07-21T00:15:58.724Z,100448
2014-07-21T00:16:15.117Z,100448
2014-07-21T00:16:32.117Z,100448
2014-07-21T00:16:50.382Z,100448
2014-07-21T00:17:08.007Z,100448
2014-07-21T00:17:26.290Z,100448
2014-07-21T00:17:43.290Z,100446
2014-07-21T00:18:01.556Z,100443
2014-07-21T00:18:19.823Z,100443
2014-07-21T00:18:37.463Z,100440
2014-07-21T00:18:55.104Z,100446
2014-07-21T00:19:12.120Z,100443
2014-07-21T00:19:30.372Z,100448
2014-07-21T00:19:48.637Z,100443
2014-07-21T00:20:06.903Z,100448
2014-07-21T00:20:25.170Z,100443
2014-07-21T00:20:42.952Z,100449
2014-07-21T00:21:01.217Z,100449
2014-07-21T00:21:18.219Z,100446
2014-07-21T00:21:35.860Z,100443
2014-07-21T00:21:54.126Z,100446
2014-07-21T00:22:12.516Z,100448
2014-07-21T00:22:30.784Z,100457
2014-07-21T00:22:48.424Z,100449
2014-07-21T00:23:05.440Z,100449
2014-07-21T00:23:23.068Z,100443
2014-07-21T00:23:41.349Z,100449
2014-07-21T00:23:58.365Z,100449
2014-07-21T00:24:16.758Z,100449
2014-07-21T00:24:35.023Z,100451
2014-07-21T00:24:53.289Z,100446
2014-07-21T00:25:11.554Z,100446
2014-07-21T00:25:28.696Z,100451
2014-07-21T00:25:46.962Z,100451
2014-07-21T00:26:04.727Z,100454
2014-07-21T00:26:22.995Z,100449
2014-07-21T00:26:41.386Z,100440
2014-07-21T00:26:59.651Z,100449
2014-07-21T00:27:17.919Z,100446
2014-07-21T00:27:36.184Z,100449
2014-07-21T00:27:53.809Z,100443
2014-07-21T00:28:10.825Z,100449
2014-07-21T00:28:28.452Z,100449
2014-07-21T00:28:46.093Z,100446
2014-07-21T00:29:03.733Z,100440
2014-07-21T00:29:22.001Z,100449
2014-07-21T00:29:40.267Z,100437
2014-07-21T00:29:57.892Z,100449
2014-07-21T00:30:14.892Z,100440
2014-07-21T00:30:31.909Z,100443
2014-07-21T00:30:49.675Z,100449
2014-07-21T00:31:07.315Z,100449
2014-07-21T00:31:25.708Z,100449
2014-07-21T00:31:42.083Z,100443
2014-07-21T00:31:59.724Z,100446
2014-07-21T00:32:16.724Z,100454
2014-07-21T00:32:34.350Z,100440
2014-07-21T00:32:52.615Z,100443
2014-07-21T00:33:09.631Z,100443
2014-07-21T00:33:27.259Z,100446
2014-07-21T00:33:45.650Z,100440
2014-07-21T00:34:03.915Z,100443
2014-07-21T00:34:21.683Z,100446
2014-07-21T00:34:39.323Z,100443
2014-07-21T00:34:57.589Z,100443
2014-07-21T00:35:15.355Z,100440
2014-07-21T00:35:32.997Z,100446
2014-07-21T00:35:51.263Z,100440
2014-07-21T00:36:09.513Z,100437
2014-07-21T00:36:27.155Z,100446
2014-07-21T00:36:45.420Z,100437
2014-07-21T00:37:03.186Z,100431
2014-07-21T00:37:20.201Z,100437
2014-07-21T00:37:37.203Z,100431
2014-07-21T00:37:55.485Z,100437
2014-07-21T00:38:13.250Z,100440
2014-07-21T00:38:31.519Z,100434
2014-07-21T00:38:49.160Z,100440
2014-07-21T00:39:06.785Z,100437
2014-07-21T00:39:23.160Z,100429
2014-07-21T00:39:40.801Z,100434
2014-07-21T00:39:59.067Z,100446
2014-07-21T00:40:16.223Z,100443
2014-07-21T00:40:33.241Z,100440
2014-07-21T00:40:51.491Z,100440
2014-07-21T00:41:09.116Z,100443
2014-07-21T00:41:26.758Z,100446
2014-07-21T00:41:43.758Z,100449
2014-07-21T00:42:02.024Z,100443
2014-07-21T00:42:20.274Z,100449
2014-07-21T00:42:38.527Z,100440
2014-07-21T00:42:56.293Z,100451
2014-07-21T00:43:14.683Z,100446
2014-07-21T00:43:32.950Z,100443
2014-07-21T00:43:50.575Z,100443
2014-07-21T00:44:08.200Z,100446
2014-07-21T00:44:26.606Z,100449
2014-07-21T00:44:43.608Z,100440
2014-07-21T00:45:01.874Z,100451
2014-07-21T00:45:19.499Z,100454
2014-07-21T00:45:37.766Z,100440
2014-07-21T00:45:55.532Z,100446
2014-07-21T00:46:13.157Z,100449
2014-07-21T00:46:31.425Z,100446
2014-07-21T00:46:49.675Z,100437
2014-07-21T00:47:07.940Z,100451
2014-07-21T00:47:26.190Z,100451
2014-07-21T00:47:42.582Z,100451
2014-07-21T00:48:00.832Z,100449
2014-07-21T00:48:19.222Z,100451
2014-07-21T00:48:37.491Z,100449
2014-07-21T00:48:55.882Z,100449
2014-07-21T00:49:13.507Z,100454
2014-07-21T00:49:31.774Z,100454
2014-07-21T00:49:50.024Z,100449
2014-07-21T00:50:08.290Z,100443
2014-07-21T00:50:25.915Z,100446
2014-07-21T00:50:43.541Z,100446
2014-07-21T00:51:01.182Z,100446
2014-07-21T00:51:18.822Z,100449
2014-07-21T00:51:36.450Z,100443
2014-07-21T00:51:54.075Z,100449
2014-07-21T00:52:12.341Z,100440
2014-07-21T00:52:28.716Z,100449
2014-07-21T00:52:45.717Z,100446
2014-07-21T00:53:03.982Z,100449
2014-07-21T00:53:22.389Z,100449
2014-07-21T00:53:39.392Z,100446
2014-07-21T00:53:57.157Z,100440
2014-07-21T00:54:14.798Z,100440
2014-07-21T00:54:32.439Z,100443
2014-07-21T00:54:50.066Z,100443
2014-07-21T00:55:07.706Z,100449
2014-07-21T00:55:26.112Z,100434
2014-07-21T00:55:43.113Z,100437
2014-07-21T00:56:01.379Z,100446
2014-07-21T00:56:19.020Z,100446
2014-07-21T00:56:36.037Z,100454
2014-07-21T00:56:54.303Z,100434
2014-07-21T00:57:12.569Z,100454
2014-07-21T00:57:30.334Z,100437
2014-07-21T00:57:47.352Z,100446
2014-07-21T00:58:04.992Z,100451
2014-07-21T00:58:23.258Z,100454
2014-07-21T00:58:41.526Z,100440
2014-07-21T00:58:58.666Z,100454
2014-07-21T00:59:16.932Z,100449
2014-07-21T00:59:35.198Z,100440
2014-07-21T00:59:53.465Z,100443
2014-07-21T01:00:10.465Z,100443
2014-07-21T01:00:27.481Z,100437
2014-07-21T01:00:45.123Z,100440
2014-07-21T01:01:02.764Z,100437
2014-07-21T01:01:20.389Z,100443
2014-07-21T01:01:37.389Z,100443
2014-07-21T01:01:55.032Z,100449
2014-07-21T01:02:11.547Z,100434
2014-07-21T01:02:29.329Z,100437
2014-07-21T01:02:47.721Z,100443
2014-07-21T01:03:05.971Z,100443
2014-07-21T01:03:23.002Z,100434
2014-07-21T01:03:41.411Z,100437
2014-07-21T01:03:59.036Z,100434
2014-07-21T01:04:16.176Z,100449
2014-07-21T01:04:33.942Z,100443
2014-07-21T01:04:52.350Z,100429
2014-07-21T01:05:10.616Z,100434
2014-07-21T01:05:28.241Z,100434
2014-07-21T01:05:45.258Z,100431
2014-07-21T01:06:02.899Z,100440
2014-07-21T01:06:19.899Z,100429
2014-07-21T01:06:37.524Z,100434
2014-07-21T01:06:55.807Z,100434
2014-07-21T01:07:12.948Z,100426
2014-07-21T01:07:31.214Z,100440
2014-07-21T01:07:48.856Z,100429
2014-07-21T01:08:06.481Z,100437
2014-07-21T01:08:23.481Z,100434
2014-07-21T01:08:41.122Z,100426
2014-07-21T01:08:58.124Z,100440
2014-07-21T01:09:15.764Z,100443
2014-07-21T01:09:33.389Z,100437
2014-07-21T01:09:50.390Z,100431
2014-07-21T01:10:07.531Z,100434
2014-07-21T01:10:25.922Z,100429
2014-07-21T01:10:44.362Z,100443
2014-07-21T01:11:01.987Z,100437
2014-07-21T01:11:20.253Z,100437
2014-07-21T01:11:38.643Z,100437
2014-07-21T01:11:56.895Z,100437
2014-07-21T01:12:15.161Z,100431
2014-07-21T01:12:33.411Z,100440
2014-07-21T01:12:49.788Z,100429
2014-07-21T01:13:08.054Z,100429
2014-07-21T01:13:26.304Z,100437
2014-07-21T01:13:43.944Z,100437
2014-07-21T01:14:01.570Z,100440
2014-07-21T01:14:19.211Z,100431
2014-07-21T01:14:37.461Z,100440
2014-07-21T01:14:55.713Z,100426
2014-07-21T01:15:13.354Z,100426
2014-07-21T01:15:31.619Z,100431
2014-07-21T01:15:50.013Z,100440
2014-07-21T01:16:08.263Z,100432
2014-07-21T01:16:26.528Z,100426
2014-07-21T01:16:43.528Z,100429
2014-07-21T01:17:00.670Z,100434
2014-07-21T01:17:18.295Z,100431
2014-07-21T01:17:36.561Z,100431
2014-07-21T01:17:53.563Z,100440
2014-07-21T01:18:11.828Z,100431
2014-07-21T01:18:29.578Z,100429
2014-07-21T01:18:47.969Z,100434
2014-07-21T01:19:05.596Z,100440
2014-07-21T01:19:22.612Z,100434
2014-07-21T01:19:38.987Z,100426
2014-07-21T01:19:57.379Z,100437
2014-07-21T01:20:15.770Z,100434
2014-07-21T01:20:33.410Z,100440
2014-07-21T01:20:51.037Z,100429
2014-07-21T01:21:09.287Z,100423
2014-07-21T01:21:26.287Z,100434
2014-07-21T01:21:44.553Z,100431
2014-07-21T01:22:02.180Z,100429
2014-07-21T01:22:20.446Z,100431
2014-07-21T01:22:37.446Z,100431
2014-07-21T01:22:55.713Z,100426
2014-07-21T01:23:13.979Z,100429
2014-07-21T01:23:31.604Z,100437
2014-07-21T01:23:49.870Z,100431
2014-07-21T01:24:08.247Z,100434
2014-07-21T01:24:26.028Z,100434
2014-07-21T01:24:44.278Z,100434
2014-07-21T01:25:02.670Z,100437
2014-07-21T01:25:20.311Z,100440
2014-07-21T01:25:37.452Z,100431
2014-07-21T01:25:55.079Z,100434
2014-07-21T01:26:13.329Z,100437
2014-07-21T01:26:30.969Z,100440
2014-07-21T01:26:49.219Z,100434
2014-07-21T01:27:06.846Z,100437
2014-07-21T01:27:25.253Z,100440
2014-07-21T01:27:42.878Z,100431
2014-07-21T01:27:59.879Z,100431
2014-07-21T01:28:18.144Z,100434
2014-07-21T01:28:35.144Z,100437
2014-07-21T01:28:52.144Z,100429
2014-07-21T01:29:09.163Z,100431
2014-07-21T01:29:27.413Z,100434
2014-07-21T01:29:45.678Z,100426
2014-07-21T01:30:03.929Z,100429
2014-07-21T01:30:21.570Z,100431
2014-07-21T01:30:39.836Z,100434
2014-07-21T01:30:58.103Z,100431
2014-07-21T01:31:15.103Z,100429
2014-07-21T01:31:32.103Z,100426
2014-07-21T01:31:49.244Z,100426
2014-07-21T01:32:06.262Z,100423
2014-07-21T01:32:24.527Z,100426
2014-07-21T01:32:41.527Z,100431
2014-07-21T01:32:59.296Z,100434
2014-07-21T01:33:17.561Z,100440
2014-07-21T01:33:35.186Z,100431
2014-07-21T01:33:51.561Z,100434
2014-07-21T01:34:08.562Z,100434
2014-07-21T01:34:26.953Z,100443
2014-07-21T01:34:43.969Z,100426
2014-07-21T01:35:00.346Z,100429
2014-07-21T01:35:18.611Z,100431
2014-07-21T01:35:37.002Z,100431
2014-07-21T01:35:55.252Z,100440
2014-07-21T01:36:12.895Z,100431
2014-07-21T01:36:31.160Z,100431
2014-07-21T01:36:48.785Z,100443
2014-07-21T01:37:06.412Z,100437
2014-07-21T01:37:24.053Z,100437
2014-07-21T01:37:41.678Z,100434
2014-07-21T01:37:58.693Z,100440
2014-07-21T01:38:16.320Z,100440
2014-07-21T01:38:33.336Z,100434
2014-07-21T01:38:50.352Z,100443
2014-07-21T01:39:07.979Z,100440
2014-07-21T01:39:25.604Z,100437
2014-07-21T01:39:43.869Z,100437
2014-07-21T01:40:00.871Z,100440
2014-07-21T01:40:19.137Z,100440
2014-07-21T01:40:36.762Z,100440
2014-07-21T01:40:53.778Z,100434
2014-07-21T01:41:12.045Z,100437
2014-07-21T01:41:30.311Z,100446
2014-07-21T01:41:47.326Z,100440
2014-07-21T01:42:05.593Z,100440
2014-07-21T01:42:23.218Z,100443
2014-07-21T01:42:40.234Z,100437
2014-07-21T01:42:57.859Z,100434
2014-07-21T01:43:15.502Z,100437
2014-07-21T01:43:33.752Z,100432
2014-07-21T01:43:50.752Z,100446
2014-07-21T01:44:09.019Z,100432
2014-07-21T01:44:27.285Z,100434
2014-07-21T01:44:44.910Z,100440
2014-07-21T01:45:02.566Z,100437
2014-07-21T01:45:19.569Z,100446
2014-07-21T01:45:37.209Z,100437
2014-07-21T01:45:54.834Z,100443
2014-07-21T01:46:13.101Z,100437
2014-07-21T01:46:30.742Z,100437
2014-07-21T01:46:49.132Z,100449
2014-07-21T01:47:06.134Z,100431
2014-07-21T01:47:23.775Z,100437
2014-07-21T01:47:40.791Z,100437
2014-07-21T01:47:58.431Z,100434
2014-07-21T01:48:16.699Z,100446
2014-07-21T01:48:34.964Z,100446
2014-07-21T01:48:53.355Z,100440
2014-07-21T01:49:10.982Z,100440
2014-07-21T01:49:28.623Z,100443
2014-07-21T01:49:46.888Z,100446
2014-07-21T01:50:03.904Z,100440
2014-07-21T01:50:22.156Z,100440
2014-07-21T01:50:39.156Z,100443
2014-07-21T01:50:56.797Z,100446
2014-07-21T01:51:14.439Z,100446
2014-07-21T01:51:32.080Z,100437
2014-07-21T01:51:49.845Z,100431
2014-07-21T01:52:06.222Z,100440
2014-07-21T01:52:23.863Z,100443
2014-07-21T01:52:40.238Z,100443
2014-07-21T01:52:58.504Z,100446
2014-07-21T01:53:16.756Z,100443
2014-07-21T01:53:33.756Z,100443
2014-07-21T01:53:51.396Z,100452
2014-07-21T01:54:09.039Z,100446
2014-07-21T01:54:27.430Z,100452
2014-07-21T01:54:45.070Z,100437
2014-07-21T01:55:02.711Z,100452
2014-07-21T01:55:20.338Z,100440
2014-07-21T01:55:38.603Z,100440
2014-07-21T01:55:56.994Z,100443
2014-07-21T01:56:14.637Z,100437
2014-07-21T01:56:31.637Z,100446
2014-07-21T01:56:49.902Z,100440
2014-07-21T01:57:07.670Z,100454
2014-07-21T01:57:25.311Z,100457
2014-07-21T01:57:42.951Z,100452
2014-07-21T01:58:01.201Z,100449
2014-07-21T01:58:19.468Z,100449
2014-07-21T01:58:37.749Z,100449
2014-07-21T01:58:54.749Z,100446
2014-07-21T01:59:13.017Z,100449
2014-07-21T01:59:30.657Z,100440
2014-07-21T01:59:47.798Z,100452
2014-07-21T02:00:06.066Z,100452
2014-07-21T02:00:24.316Z,100454
2014-07-21T02:00:41.331Z,100446
2014-07-21T02:00:59.597Z,100452
2014-07-21T02:01:17.864Z,100446
2014-07-21T02:01:36.114Z,100446
2014-07-21T02:01:53.771Z,100446
2014-07-21T02:02:11.538Z,100440
2014-07-21T02:02:29.179Z,100443
2014-07-21T02:02:46.195Z,100449
2014-07-21T02:03:03.820Z,100446
2014-07-21T02:03:20.212Z,100446
2014-07-21T02:03:37.353Z,100440
2014-07-21T02:03:54.993Z,100449
2014-07-21T02:04:12.618Z,100443
2014-07-21T02:04:30.261Z,100452
2014-07-21T02:04:48.527Z,100454
2014-07-21T02:05:06.292Z,100440
2014-07-21T02:05:24.060Z,100437
2014-07-21T02:05:42.326Z,100449
2014-07-21T02:05:59.951Z,100434
2014-07-21T02:06:18.216Z,100449
2014-07-21T02:06:36.484Z,100449
2014-07-21T02:06:53.484Z,100449
2014-07-21T02:07:11.749Z,100443
2014-07-21T02:07:28.751Z,100452
2014-07-21T02:07:46.376Z,100452
2014-07-21T02:08:04.767Z,100446
2014-07-21T02:08:23.036Z,100446
2014-07-21T02:08:41.301Z,100449
2014-07-21T02:08:59.551Z,100443
2014-07-21T02:09:17.958Z,100449
2014-07-21T02:09:36.209Z,100449
2014-07-21T02:09:53.224Z,100446
2014-07-21T02:10:10.849Z,100454
2014-07-21T02:10:29.242Z,100443
2014-07-21T02:10:46.882Z,100446
2014-07-21T02:11:04.648Z,100452
2014-07-21T02:11:23.039Z,100449
2014-07-21T02:11:40.666Z,100446
2014-07-21T02:11:57.806Z,100446
2014-07-21T02:12:16.228Z,100452
2014-07-21T02:12:33.855Z,100454
2014-07-21T02:12:52.246Z,100452
2014-07-21T02:13:09.886Z,100452
2014-07-21T02:13:27.529Z,100449
2014-07-21T02:13:45.779Z,100443
2014-07-21T02:14:03.420Z,100452
2014-07-21T02:14:21.670Z,100452
2014-07-21T02:14:39.312Z,100446
2014-07-21T02:14:56.312Z,100449
2014-07-21T02:15:13.953Z,100440
2014-07-21T02:15:31.579Z,100440
2014-07-21T02:15:49.970Z,100443
2014-07-21T02:16:07.595Z,100452
2014-07-21T02:16:25.235Z,100440
2014-07-21T02:16:43.629Z,100446
2014-07-21T02:17:01.269Z,100443
2014-07-21T02:17:18.926Z,100449
2014-07-21T02:17:36.552Z,100443
2014-07-21T02:17:54.317Z,100452
2014-07-21T02:18:12.724Z,100446
2014-07-21T02:18:31.117Z,100446
2014-07-21T02:18:48.883Z,100443
2014-07-21T02:19:07.148Z,100446
2014-07-21T02:19:25.414Z,100449
2014-07-21T02:19:42.432Z,100446
2014-07-21T02:20:00.197Z,100449
2014-07-21T02:20:17.854Z,100446
2014-07-21T02:20:34.856Z,100446
2014-07-21T02:20:53.106Z,100443
2014-07-21T02:21:10.887Z,100443
2014-07-21T02:21:29.277Z,100446
2014-07-21T02:21:47.529Z,100449
2014-07-21T02:22:05.795Z,100452
2014-07-21T02:22:23.436Z,100449
2014-07-21T02:22:40.437Z,100457
2014-07-21T02:22:56.952Z,100449
2014-07-21T02:23:15.202Z,100454
2014-07-21T02:23:32.845Z,100440
2014-07-21T02:23:50.486Z,100457
2014-07-21T02:24:06.861Z,100452
2014-07-21T02:24:23.861Z,100457
2014-07-21T02:24:42.253Z,100454
2014-07-21T02:25:00.659Z,100452
2014-07-21T02:25:17.659Z,100449
2014-07-21T02:25:35.927Z,100449
2014-07-21T02:25:52.927Z,100452
2014-07-21T02:26:11.193Z,100452
2014-07-21T02:26:28.208Z,100454
2014-07-21T02:26:46.476Z,100446
2014-07-21T02:27:04.726Z,100457
2014-07-21T02:27:22.351Z,100443
2014-07-21T02:27:39.994Z,100452
2014-07-21T02:27:58.259Z,100446
2014-07-21T02:28:16.509Z,100446
2014-07-21T02:28:34.777Z,100457
2014-07-21T02:28:53.042Z,100446
2014-07-21T02:29:10.683Z,100443
2014-07-21T02:29:28.308Z,100443
2014-07-21T02:29:46.716Z,100452
2014-07-21T02:30:04.982Z,100449
2014-07-21T02:30:21.982Z,100440
2014-07-21T02:30:40.249Z,100449
2014-07-21T02:30:55.999Z,100446
2014-07-21T02:31:13.624Z,100443
2014-07-21T02:31:31.264Z,100437
2014-07-21T02:31:48.891Z,100440
2014-07-21T02:32:06.532Z,100449
2014-07-21T02:32:24.157Z,100443
2014-07-21T02:32:42.425Z,100452
2014-07-21T02:33:00.691Z,100452
2014-07-21T02:33:18.957Z,100443
2014-07-21T02:33:36.584Z,100446
2014-07-21T02:33:54.849Z,100446
2014-07-21T02:34:12.474Z,100452
2014-07-21T02:34:30.740Z,100446
2014-07-21T02:34:47.757Z,100454
2014-07-21T02:35:05.397Z,100440
2014-07-21T02:35:22.538Z,100446
2014-07-21T02:35:39.540Z,100449
2014-07-21T02:35:56.055Z,100449
2014-07-21T02:36:14.305Z,100449
2014-07-21T02:36:31.305Z,100446
2014-07-21T02:36:48.948Z,100446
2014-07-21T02:37:06.573Z,100454
2014-07-21T02:37:24.339Z,100449
2014-07-21T02:37:42.107Z,100449
2014-07-21T02:37:59.123Z,100452
2014-07-21T02:38:16.123Z,100454
2014-07-21T02:38:33.123Z,100454
2014-07-21T02:38:50.155Z,100454
2014-07-21T02:39:07.780Z,100454
2014-07-21T02:39:25.421Z,100449
2014-07-21T02:39:43.673Z,100452
2014-07-21T02:40:00.688Z,100463
2014-07-21T02:40:18.329Z,100452
2014-07-21T02:40:36.579Z,100449
2014-07-21T02:40:54.206Z,100452
2014-07-21T02:41:11.206Z,100454
2014-07-21T02:41:28.847Z,100449
2014-07-21T02:41:46.614Z,100454
2014-07-21T02:42:04.239Z,100446
2014-07-21T02:42:21.896Z,100454
2014-07-21T02:42:39.661Z,100457
2014-07-21T02:42:58.054Z,100446
2014-07-21T02:43:16.304Z,100446
2014-07-21T02:43:34.569Z,100440
2014-07-21T02:43:52.836Z,100449
2014-07-21T02:44:09.852Z,100440
2014-07-21T02:44:27.477Z,100452
2014-07-21T02:44:45.120Z,100443
2014-07-21T02:45:03.370Z,100454
2014-07-21T02:45:21.011Z,100446
2014-07-21T02:45:39.402Z,100452
2014-07-21T02:45:57.029Z,100446
2014-07-21T02:46:14.669Z,100437
2014-07-21T02:46:32.294Z,100446
2014-07-21T02:46:50.562Z,100443
2014-07-21T02:47:08.812Z,100454
2014-07-21T02:47:26.468Z,100443
2014-07-21T02:47:44.719Z,100443
2014-07-21T02:48:02.985Z,100446
2014-07-21T02:48:20.610Z,100452
2014-07-21T02:48:38.391Z,100446
2014-07-21T02:48:55.393Z,100449
2014-07-21T02:49:13.659Z,100457
2014-07-21T02:49:31.284Z,100449
2014-07-21T02:49:48.912Z,100454
2014-07-21T02:50:07.177Z,100460
2014-07-21T02:50:24.818Z,100457
2014-07-21T02:50:42.443Z,100446
2014-07-21T02:51:00.084Z,100449
2014-07-21T02:51:17.084Z,100454
2014-07-21T02:51:34.709Z,100463
2014-07-21T02:51:52.478Z,100460
2014-07-21T02:52:10.259Z,100452
2014-07-21T02:52:27.384Z,100449
2014-07-21T02:52:45.150Z,100454
2014-07-21T02:53:02.167Z,100466
2014-07-21T02:53:20.432Z,100452
2014-07-21T02:53:38.682Z,100452
2014-07-21T02:53:56.326Z,100446
2014-07-21T02:54:13.341Z,100446
2014-07-21T02:54:29.716Z,100454
2014-07-21T02:54:47.982Z,100454
2014-07-21T02:55:06.374Z,100452
2014-07-21T02:55:24.624Z,100452
2014-07-21T02:55:42.889Z,100449
2014-07-21T02:56:00.532Z,100460
2014-07-21T02:56:18.157Z,100446
2014-07-21T02:56:35.860Z,100449
2014-07-21T02:56:54.128Z,100443
2014-07-21T02:57:11.753Z,100454
2014-07-21T02:57:29.534Z,100443
2014-07-21T02:57:45.909Z,100449
2014-07-21T02:58:02.911Z,100460
2014-07-21T02:58:21.177Z,100452
2014-07-21T02:58:37.552Z,100454
2014-07-21T02:58:54.694Z,100460
2014-07-21T02:59:12.335Z,100449
2014-07-21T02:59:29.335Z,100457
2014-07-21T02:59:47.116Z,100449
2014-07-21T03:00:04.743Z,100452
2014-07-21T03:00:22.384Z,100452
2014-07-21T03:00:39.384Z,100457
2014-07-21T03:00:57.026Z,100449
2014-07-21T03:01:15.417Z,100460
2014-07-21T03:01:33.683Z,100457
2014-07-21T03:01:51.948Z,100454
2014-07-21T03:02:08.950Z,100454
2014-07-21T03:02:26.091Z,100460
2014-07-21T03:02:43.856Z,100460
2014-07-21T03:03:01.483Z,100466
2014-07-21T03:03:19.108Z,100452
2014-07-21T03:03:36.890Z,100460
2014-07-21T03:03:53.890Z,100460
2014-07-21T03:04:11.657Z,100457
2014-07-21T03:04:29.282Z,100460
2014-07-21T03:04:47.048Z,100457
2014-07-21T03:05:04.680Z,100463
2014-07-21T03:05:22.946Z,100466
2014-07-21T03:05:41.196Z,100463
2014-07-21T03:05:58.864Z,100472
2014-07-21T03:06:17.129Z,100469
2014-07-21T03:06:34.770Z,100460
2014-07-21T03:06:53.020Z,100457
2014-07-21T03:07:10.062Z,100463
2014-07-21T03:07:27.702Z,100469
2014-07-21T03:07:45.968Z,100472
2014-07-21T03:08:04.261Z,100463
2014-07-21T03:08:22.511Z,100463
2014-07-21T03:08:40.136Z,100472
2014-07-21T03:08:58.445Z,100460
2014-07-21T03:09:16.835Z,100472
2014-07-21T03:09:34.601Z,100474
2014-07-21T03:09:52.851Z,100469
2014-07-21T03:10:10.045Z,100463
2014-07-21T03:10:28.295Z,100463
2014-07-21T03:10:45.295Z,100469
2014-07-21T03:11:02.952Z,100463
2014-07-21T03:11:21.202Z,100466
2014-07-21T03:11:38.842Z,100463
2014-07-21T03:11:57.092Z,100466
2014-07-21T03:12:13.483Z,100466
2014-07-21T03:12:29.858Z,100460
2014-07-21T03:12:47.499Z,100474
2014-07-21T03:13:05.140Z,100469
2014-07-21T03:13:23.406Z,100472
2014-07-21T03:13:40.546Z,100463
2014-07-21T03:13:58.796Z,100460
2014-07-21T03:14:17.079Z,100469
2014-07-21T03:14:35.329Z,100469
2014-07-21T03:14:53.595Z,100474
2014-07-21T03:15:11.234Z,100474
2014-07-21T03:15:29.499Z,100469
2014-07-21T03:15:47.265Z,100472
2014-07-21T03:16:04.897Z,100469
2014-07-21T03:16:23.162Z,100474
2014-07-21T03:16:40.803Z,100472
2014-07-21T03:16:57.787Z,100469
2014-07-21T03:17:14.935Z,100460
2014-07-21T03:17:32.076Z,100472
2014-07-21T03:17:49.701Z,100479
2014-07-21T03:18:07.959Z,100469
2014-07-21T03:18:25.599Z,100474
2014-07-21T03:18:43.224Z,100466
2014-07-21T03:19:00.240Z,100457
2014-07-21T03:19:17.889Z,100469
2014-07-21T03:19:36.139Z,100474
2014-07-21T03:19:54.404Z,100472
2014-07-21T03:20:12.176Z,100472
2014-07-21T03:20:29.816Z,100474
2014-07-21T03:20:47.441Z,100469
2014-07-21T03:21:05.695Z,100469
2014-07-21T03:21:23.961Z,100469
2014-07-21T03:21:40.336Z,100474
2014-07-21T03:21:57.977Z,100472
2014-07-21T03:22:14.981Z,100469
2014-07-21T03:22:32.621Z,100474
2014-07-21T03:22:50.887Z,100463
2014-07-21T03:23:08.016Z,100472
2014-07-21T03:23:25.016Z,100472
2014-07-21T03:23:42.032Z,100472
2014-07-21T03:23:59.797Z,100457
2014-07-21T03:24:18.082Z,100466
2014-07-21T03:24:35.707Z,100463
2014-07-21T03:24:53.348Z,100474
2014-07-21T03:25:10.976Z,100465
2014-07-21T03:25:28.617Z,100479
2014-07-21T03:25:45.617Z,100465
2014-07-21T03:26:02.617Z,100476
2014-07-21T03:26:20.884Z,100478
2014-07-21T03:26:38.509Z,100473
2014-07-21T03:26:56.150Z,100465
2014-07-21T03:27:13.794Z,100468
2014-07-21T03:27:31.434Z,100465
2014-07-21T03:27:49.684Z,100473
2014-07-21T03:28:07.967Z,100478
2014-07-21T03:28:25.092Z,100476
2014-07-21T03:28:42.733Z,100473
2014-07-21T03:28:59.749Z,100473
2014-07-21T03:29:17.376Z,100480
2014-07-21T03:29:35.016Z,100483
2014-07-21T03:29:53.423Z,100470
2014-07-21T03:30:11.676Z,100480
2014-07-21T03:30:28.051Z,100470
2014-07-21T03:30:45.066Z,100470
2014-07-21T03:31:03.457Z,100477
2014-07-21T03:31:19.834Z,100475
2014-07-21T03:31:37.474Z,100477
2014-07-21T03:31:55.865Z,100470
2014-07-21T03:32:12.883Z,100483
2014-07-21T03:32:29.898Z,100472
2014-07-21T03:32:47.523Z,100469
2014-07-21T03:33:04.664Z,100472
2014-07-21T03:33:21.822Z,100472
2014-07-21T03:33:40.072Z,100477
2014-07-21T03:33:58.338Z,100464
2014-07-21T03:34:16.605Z,100475
2014-07-21T03:34:32.980Z,100480
2014-07-21T03:34:50.121Z,100467
2014-07-21T03:35:07.905Z,100470
2014-07-21T03:35:25.530Z,100467
2014-07-21T03:35:43.921Z,100470
2014-07-21T03:36:01.562Z,100472
2014-07-21T03:36:18.563Z,100472
2014-07-21T03:36:36.813Z,100467
2014-07-21T03:36:53.828Z,100467
2014-07-21T03:37:11.455Z,100472
2014-07-21T03:37:29.221Z,100477
2014-07-21T03:37:45.596Z,100475
2014-07-21T03:38:03.861Z,100475
2014-07-21T03:38:21.505Z,100483
2014-07-21T03:38:39.130Z,100475
2014-07-21T03:38:56.771Z,100470
2014-07-21T03:39:14.412Z,100483
2014-07-21T03:39:32.162Z,100472
2014-07-21T03:39:49.803Z,100472
2014-07-21T03:40:07.428Z,100477
2014-07-21T03:40:25.696Z,100475
2014-07-21T03:40:43.961Z,100480
2014-07-21T03:41:00.961Z,100477
2014-07-21T03:41:17.979Z,100483